Terminal Aerodrome Forecast
Issued by NWS Charleston, WV

Current Version | Previous Version | Graphics & Text | Print | Product List | Glossary On
Versions: 1 2 3 4 5 6 7 8 9 10 11 12 13 14 15 16 17 18 19 20 21 22 23 24 25 26 27 28 29 30 31 32 33 34 35 36
000
FTUS41 KRLX 201600 AAD
TAFHTS
TAF AMD
KHTS 201657Z 2017/2112 00000KT 5SM BR SCT004 OVC025
      TEMPO 2017/2018 BKN004 BKN025 OVC040
     FM201800 VRB03KT P6SM BKN025 OVC040
     FM202000 17004KT P6SM BKN035
     FM210500 00000KT 5SM BR SCT045
     FM210800 00000KT 3SM BR SCT045
     FM210900 00000KT 2SM BR SCT002 SCT045=

USA.gov is the U.S. government's official web portal to all federal, state and local government web resources and services.